Frem Nordica — OVIL2 — position and weather

sailwx.info

Track history (hours):
 
Tides and Currents Weather Stations Pressure Air Temp Water Temp Dewpoint Dewpoint Depression Visibility Wind Speed Wind Dir Waves Ship Positions

Frem Nordica

Last reported at 2015-Jan-30 16:33 UTC. Time now 2015-Jan-30 17:04 UTC.
Position N 57°00' E 011°44'.

Length 79 m; draft 3.4 m.

MMSI: 220439000.

Date/timePositionNaut miles runAvg speedWind from/ knotsBaromVisibWave heightAir tempDewpointWater temp
2015-Jan-30 16:33N 57°00' E 011°44'8 8.2
2015-Jan-30 15:34N 56°53' E 011°49'9 9.3
2015-Jan-30 14:34N 56°44' E 011°54'43 8.0
2015-Jan-30 09:12N 56°01' E 011°51'6 3.8
2015-Jan-30 07:32N 55°58' E 012°01'1 0.0
2015-Jan-28 22:32N 55°57' E 012°00'6 4.6
2015-Jan-28 21:17N 55°57' E 011°50'  
2015-Jan-25 14:30N 56°11' E 012°10'8 8.7
2015-Jan-25 13:33N 56°10' E 012°25'10 9.7
2015-Jan-25 12:33N 56°04' E 012°38'9 8.9
2015-Jan-25 11:33N 55°55' E 012°44'8 8.2
2015-Jan-25 10:33N 55°47' E 012°43'8 8.4
2015-Jan-25 09:33N 55°39' E 012°42'8 8.2
2015-Jan-25 08:33N 55°31' E 012°42'8 8.4
2015-Jan-25 07:33N 55°22' E 012°42'7 6.9
2015-Jan-25 06:33N 55°17' E 012°49'8 8.1
2015-Jan-25 05:33N 55°16' E 013°03'64 7.9
2015-Jan-24 21:32N 55°33' E 014°51'8 7.9
2015-Jan-24 20:33N 55°37' E 015°03'117 6.8
2015-Jan-24 03:29N 57°05' E 017°22'8 8.2
2015-Jan-24 02:33N 57°12' E 017°27'10 8.0
2015-Jan-24 01:19N 57°21' E 017°34'  
Track history (hours):
 
Tides and Currents Weather Stations Pressure Air Temp Water Temp Dewpoint Dewpoint Depression Visibility Wind Speed Wind Dir Waves Ship Positions

Frem Nordica

Last reported at 2015-Jan-30 16:33 UTC. Time now 2015-Jan-30 17:04 UTC.
Position N 57°00' E 011°44'.

Length 79 m; draft 3.4 m.

MMSI: 220439000.

Date/timePositionNaut miles runAvg speedWind from/ knotsBaromVisibWave heightAir tempDewpointWater temp
2015-Jan-30 16:33N 57°00' E 011°44'8 8.2
2015-Jan-30 15:34N 56°53' E 011°49'9 9.3
2015-Jan-30 14:34N 56°44' E 011°54'43 8.0
2015-Jan-30 09:12N 56°01' E 011°51'6 3.8
2015-Jan-30 07:32N 55°58' E 012°01'1 0.0
2015-Jan-28 22:32N 55°57' E 012°00'6 4.6
2015-Jan-28 21:17N 55°57' E 011°50'  
2015-Jan-25 14:30N 56°11' E 012°10'8 8.7
2015-Jan-25 13:33N 56°10' E 012°25'10 9.7
2015-Jan-25 12:33N 56°04' E 012°38'9 8.9
2015-Jan-25 11:33N 55°55' E 012°44'8 8.2
2015-Jan-25 10:33N 55°47' E 012°43'8 8.4
2015-Jan-25 09:33N 55°39' E 012°42'8 8.2
2015-Jan-25 08:33N 55°31' E 012°42'8 8.4
2015-Jan-25 07:33N 55°22' E 012°42'7 6.9
2015-Jan-25 06:33N 55°17' E 012°49'8 8.1
2015-Jan-25 05:33N 55°16' E 013°03'64 7.9
2015-Jan-24 21:32N 55°33' E 014°51'8 7.9
2015-Jan-24 20:33N 55°37' E 015°03'117 6.8
2015-Jan-24 03:29N 57°05' E 017°22'8 8.2
2015-Jan-24 02:33N 57°12' E 017°27'10 8.0
2015-Jan-24 01:19N 57°21' E 017°34'  

Dump ship's entire track history